createdAt,value
2018-03-01T00:01:21.961Z,24.12
2018-03-01T00:03:49.505Z,17.55
2018-03-01T00:06:16.248Z,23.00
2018-03-01T00:08:42.482Z,23.77
2018-03-01T00:11:08.702Z,20.23
2018-03-01T00:13:34.884Z,23.38
2018-03-01T00:16:01.575Z,22.37
2018-03-01T00:18:29.113Z,21.58
2018-03-01T00:20:56.350Z,18.50
2018-03-01T00:23:22.564Z,22.60
2018-03-01T00:25:49.431Z,21.85
2018-03-01T00:28:16.137Z,25.42
2018-03-01T00:30:42.482Z,24.08
2018-03-01T00:33:09.252Z,21.05
2018-03-01T00:35:35.999Z,22.45
2018-03-01T00:38:02.671Z,21.62
2018-03-01T00:40:28.876Z,19.70
2018-03-01T00:42:55.694Z,22.27
2018-03-01T00:45:23.604Z,20.17
2018-03-01T00:47:50.528Z,20.12
2018-03-01T00:50:17.372Z,23.45
2018-03-01T00:52:44.179Z,20.25
2018-03-01T00:55:10.416Z,22.00
2018-03-01T00:57:36.770Z,20.90
2018-03-01T01:00:03.759Z,19.83
2018-03-01T01:02:30.103Z,19.67
2018-03-01T01:04:56.918Z,18.52
2018-03-01T01:07:25.261Z,17.33
2018-03-01T01:09:52.323Z,21.48
2018-03-01T01:12:19.323Z,18.33
2018-03-01T01:14:45.530Z,17.02
2018-03-01T01:17:11.750Z,18.52
2018-03-01T01:19:38.108Z,26.95
2018-03-01T01:22:05.088Z,23.05
2018-03-01T01:24:31.603Z,21.67
2018-03-01T01:26:58.575Z,21.62
2018-03-01T01:29:26.124Z,23.85
2018-03-01T01:31:53.100Z,27.15
2018-03-01T01:34:19.871Z,24.42
2018-03-01T01:36:46.440Z,23.67
2018-03-01T01:39:13.423Z,24.00
2018-03-01T01:41:39.647Z,28.40
2018-03-01T01:44:06.243Z,28.02
2018-03-01T01:46:34.193Z,23.58
2018-03-01T01:49:01.197Z,24.95
2018-03-01T01:51:29.338Z,25.62
2018-03-01T01:53:55.873Z,26.52
2018-03-01T01:56:22.859Z,24.15
2018-03-01T01:58:50.320Z,23.92
2018-03-01T02:01:17.425Z,20.48
2018-03-01T02:03:43.649Z,38.30
2018-03-01T02:06:10.812Z,29.52
2018-03-01T02:08:38.235Z,31.58
2018-03-01T02:11:05.383Z,25.95
2018-03-01T02:13:33.962Z,23.85
2018-03-01T02:16:01.949Z,24.42
2018-03-01T02:18:30.019Z,27.30
2018-03-01T02:20:57.041Z,25.88
2018-03-01T02:23:23.250Z,20.67
2018-03-01T02:25:49.562Z,18.80
2018-03-01T02:28:16.464Z,28.60
2018-03-01T02:30:42.735Z,18.80
2018-03-01T02:33:09.716Z,19.37
2018-03-01T02:35:35.987Z,26.35
2018-03-01T02:38:03.181Z,27.60
2018-03-01T02:40:29.379Z,26.12
2018-03-01T02:42:56.966Z,26.98
2018-03-01T02:45:23.194Z,28.73
2018-03-01T02:47:49.972Z,27.92
2018-03-01T02:50:16.167Z,26.58
2018-03-01T02:52:43.167Z,22.10
2018-03-01T02:55:10.669Z,24.73
2018-03-01T02:57:36.975Z,24.52
2018-03-01T03:00:04.367Z,26.42
2018-03-01T03:02:32.312Z,25.88
2018-03-01T03:04:59.832Z,26.17
2018-03-01T03:07:26.634Z,28.77
2018-03-01T03:09:53.371Z,24.98
2018-03-01T03:12:19.577Z,19.75
2018-03-01T03:14:45.767Z,26.58
2018-03-01T03:17:12.085Z,23.42
2018-03-01T03:19:39.498Z,21.85
2018-03-01T03:22:06.622Z,21.55
2018-03-01T03:24:34.800Z,25.08
2018-03-01T03:27:01.582Z,31.37
2018-03-01T03:29:29.279Z,25.83
2018-03-01T03:31:56.304Z,24.00
2018-03-01T03:34:23.201Z,22.87
2018-03-01T03:36:50.993Z,20.92
2018-03-01T03:39:17.747Z,23.17
2018-03-01T03:41:44.757Z,24.02
2018-03-01T03:44:11.140Z,24.25
2018-03-01T03:46:38.142Z,23.08
2018-03-01T03:49:04.469Z,23.50
2018-03-01T03:51:31.354Z,28.15
2018-03-01T03:53:57.608Z,24.15
2018-03-01T03:56:25.258Z,29.12
2018-03-01T03:58:52.411Z,29.40
2018-03-01T04:01:18.622Z,35.03
2018-03-01T04:03:45.012Z,29.65
2018-03-01T04:06:11.232Z,25.50
2018-03-01T04:08:38.746Z,26.45
2018-03-01T04:11:05.467Z,29.23
2018-03-01T04:13:32.181Z,32.15
2018-03-01T04:15:59.299Z,30.80
2018-03-01T04:18:26.862Z,27.85
2018-03-01T04:20:53.972Z,27.42
2018-03-01T04:23:20.324Z,25.98
2018-03-01T04:25:47.941Z,24.70
2018-03-01T04:28:14.151Z,27.25
2018-03-01T04:30:40.922Z,24.63
2018-03-01T04:33:07.168Z,25.95
2018-03-01T04:35:33.372Z,32.80
2018-03-01T04:38:00.522Z,26.73
2018-03-01T04:40:27.469Z,26.27
2018-03-01T04:42:55.997Z,31.98
2018-03-01T04:45:23.574Z,28.70
2018-03-01T04:47:49.765Z,35.17
2018-03-01T04:50:17.249Z,30.23
2018-03-01T04:52:44.590Z,27.80
2018-03-01T04:55:11.787Z,29.80
2018-03-01T04:57:40.012Z,27.00
2018-03-01T05:00:08.551Z,27.85
2018-03-01T05:02:35.016Z,25.37
2018-03-01T05:05:02.654Z,27.13
2018-03-01T05:07:29.221Z,34.58
2018-03-01T05:09:57.407Z,29.40
2018-03-01T05:22:09.245Z,29.75
2018-03-01T05:24:37.187Z,29.55
2018-03-01T05:27:03.402Z,28.52
2018-03-01T05:29:30.336Z,31.15
2018-03-01T05:31:56.620Z,34.67
2018-03-01T05:34:23.589Z,27.45
2018-03-01T05:36:50.356Z,32.70
2018-03-01T05:39:16.551Z,25.73
2018-03-01T05:41:42.806Z,33.15
2018-03-01T05:44:09.695Z,29.08
2018-03-01T05:46:36.473Z,30.48
2018-03-01T05:49:03.452Z,33.75
2018-03-01T05:51:29.663Z,31.98
2018-03-01T05:53:55.929Z,33.53
2018-03-01T05:56:22.114Z,31.98
2018-03-01T05:58:48.388Z,31.55
2018-03-01T06:01:14.800Z,29.52
2018-03-01T06:03:42.013Z,25.73
2018-03-01T06:06:09.116Z,37.75
2018-03-01T06:08:35.447Z,44.90
2018-03-01T06:11:01.821Z,32.85
2018-03-01T06:13:28.323Z,38.75
2018-03-01T06:15:55.962Z,39.15
2018-03-01T06:18:22.704Z,30.23
2018-03-01T06:20:48.914Z,38.25
2018-03-01T06:23:15.538Z,30.52
2018-03-01T06:25:41.958Z,31.30
2018-03-01T06:28:08.268Z,36.90
2018-03-01T06:30:35.439Z,42.62
2018-03-01T06:33:02.078Z,31.23
2018-03-01T06:35:29.907Z,33.55
2018-03-01T06:37:57.950Z,32.58
2018-03-01T06:40:24.942Z,29.20
2018-03-01T06:42:51.162Z,30.48
2018-03-01T06:45:19.169Z,34.17
2018-03-01T06:47:46.192Z,33.17
2018-03-01T06:50:12.530Z,31.73
2018-03-01T06:52:38.964Z,33.33
2018-03-01T06:55:06.636Z,31.02
2018-03-01T06:57:33.470Z,37.05
2018-03-01T07:00:00.000Z,32.78
2018-03-01T07:02:27.846Z,26.02
2018-03-01T07:04:55.509Z,32.80
2018-03-01T07:07:21.700Z,30.42
2018-03-01T07:09:47.987Z,31.40
2018-03-01T07:12:14.256Z,33.90
2018-03-01T07:14:40.461Z,35.53
2018-03-01T07:17:06.714Z,31.35
2018-03-01T07:19:33.547Z,31.25
2018-03-01T07:22:00.670Z,31.45
2018-03-01T07:24:28.625Z,46.97
2018-03-01T07:26:55.839Z,35.35
2018-03-01T07:29:23.223Z,33.78
2018-03-01T07:31:50.302Z,38.47
2018-03-01T07:34:16.730Z,43.95
2018-03-01T07:36:43.938Z,36.25
2018-03-01T07:39:11.449Z,33.60
2018-03-01T07:41:38.141Z,39.20
2018-03-01T07:44:06.218Z,33.38
2018-03-01T07:46:32.724Z,33.38
2018-03-01T07:48:59.691Z,41.63
2018-03-01T07:51:25.954Z,38.40
2018-03-01T07:53:52.171Z,35.53
2018-03-01T07:56:18.438Z,37.13
2018-03-01T07:58:44.873Z,30.65
2018-03-01T08:01:13.055Z,33.50
2018-03-01T08:03:40.017Z,34.28
2018-03-01T08:06:07.240Z,35.05
2018-03-01T08:08:34.265Z,33.83
2018-03-01T08:11:01.373Z,34.25
2018-03-01T08:13:27.614Z,37.08
2018-03-01T08:15:54.057Z,49.03
2018-03-01T08:18:20.254Z,42.10
2018-03-01T08:20:48.390Z,39.22
2018-03-01T08:23:14.657Z,39.97
2018-03-01T08:25:41.923Z,39.42
2018-03-01T08:28:08.453Z,44.90
2018-03-01T08:30:36.482Z,52.50
2018-03-01T08:33:04.025Z,48.90
2018-03-01T08:35:30.245Z,53.13
2018-03-01T08:37:56.564Z,47.95
2018-03-01T08:40:22.783Z,43.10
2018-03-01T08:42:49.537Z,50.83
2018-03-01T08:45:15.689Z,63.97
2018-03-01T08:47:41.903Z,49.33
2018-03-01T08:50:08.696Z,83.03
2018-03-01T08:52:34.910Z,57.90
2018-03-01T08:55:01.917Z,60.00
2018-03-01T08:57:28.142Z,51.88
2018-03-01T08:59:54.974Z,50.05
2018-03-01T09:02:22.086Z,45.97
2018-03-01T09:04:49.056Z,41.15
2018-03-01T09:07:15.691Z,43.42
2018-03-01T09:09:42.433Z,36.53
2018-03-01T09:12:08.828Z,33.58
2018-03-01T09:14:35.808Z,30.52
2018-03-01T09:17:02.003Z,30.15
2018-03-01T09:19:29.156Z,32.58
2018-03-01T09:21:56.450Z,32.72
2018-03-01T09:24:23.517Z,32.42
2018-03-01T09:26:50.297Z,27.23
2018-03-01T09:29:17.561Z,32.63
2018-03-01T09:31:44.680Z,35.33
2018-03-01T09:34:11.407Z,33.55
2018-03-01T09:36:38.096Z,32.10
2018-03-01T09:39:04.388Z,26.02
2018-03-01T09:41:31.604Z,33.17
2018-03-01T09:43:59.332Z,30.92
2018-03-01T09:46:25.807Z,29.17
2018-03-01T09:48:52.013Z,31.75
2018-03-01T09:51:18.383Z,28.50
2018-03-01T09:53:44.939Z,25.98
2018-03-01T09:56:12.090Z,28.58
2018-03-01T09:58:39.202Z,27.42
2018-03-01T10:01:06.432Z,27.33
2018-03-01T10:03:32.919Z,29.25
2018-03-01T10:06:00.621Z,27.37
2018-03-01T10:08:27.519Z,30.33
2018-03-01T10:10:54.280Z,32.22
2018-03-01T10:13:20.584Z,34.47
2018-03-01T10:15:49.725Z,30.05
2018-03-01T10:18:16.592Z,27.02
2018-03-01T10:20:43.677Z,29.75
2018-03-01T10:23:10.003Z,29.63
2018-03-01T10:25:36.852Z,28.65
2018-03-01T10:28:04.942Z,28.38
2018-03-01T10:30:31.406Z,27.55
2018-03-01T10:32:58.447Z,34.75
2018-03-01T10:35:24.724Z,28.83
2018-03-01T10:37:51.559Z,26.00
2018-03-01T10:40:18.302Z,29.67
2018-03-01T10:42:44.508Z,30.23
2018-03-01T10:45:10.756Z,26.87
2018-03-01T10:47:37.126Z,30.90
2018-03-01T10:50:03.969Z,33.75
2018-03-01T10:52:30.251Z,29.08
2018-03-01T10:54:56.688Z,25.05
2018-03-01T10:57:23.691Z,28.67
2018-03-01T10:59:49.879Z,30.27
2018-03-01T11:02:16.629Z,29.52
2018-03-01T11:04:43.369Z,26.80
2018-03-01T11:07:10.835Z,28.30
2018-03-01T11:09:37.403Z,28.25
2018-03-01T11:12:04.546Z,27.98
2018-03-01T11:14:30.864Z,25.55
2018-03-01T11:16:57.416Z,26.27
2018-03-01T11:19:24.905Z,31.37
2018-03-01T11:21:51.789Z,26.77
2018-03-01T11:24:18.028Z,28.85
2018-03-01T11:26:44.822Z,30.62
2018-03-01T11:29:11.412Z,30.33
2018-03-01T11:31:39.168Z,34.42
2018-03-01T11:34:05.593Z,31.77
2018-03-01T11:36:31.821Z,27.77
2018-03-01T11:38:58.036Z,31.35
2018-03-01T11:41:24.983Z,43.05
2018-03-01T11:43:52.052Z,34.17
2018-03-01T11:46:18.417Z,33.83
2018-03-01T11:48:44.822Z,34.90
2018-03-01T11:51:11.019Z,29.35
2018-03-01T11:53:38.001Z,28.58
2018-03-01T11:56:04.211Z,30.65
2018-03-01T11:58:30.632Z,31.48
2018-03-01T12:00:56.845Z,30.23
2018-03-01T12:03:23.864Z,30.23
2018-03-01T12:05:50.592Z,30.67
2018-03-01T12:08:18.559Z,31.90
2018-03-01T12:10:44.992Z,34.58
2018-03-01T12:13:12.061Z,31.83
2018-03-01T12:15:39.132Z,31.40
2018-03-01T12:18:06.602Z,35.22
2018-03-01T12:20:33.358Z,30.98
2018-03-01T12:22:59.810Z,37.25
2018-03-01T12:25:26.059Z,32.40
2018-03-01T12:27:52.278Z,29.33
2018-03-01T12:30:18.569Z,29.08
2018-03-01T12:32:44.887Z,26.77
2018-03-01T12:35:11.379Z,30.25
2018-03-01T12:37:38.960Z,30.65
2018-03-01T12:40:05.937Z,32.22
2018-03-01T12:42:32.301Z,34.65
2018-03-01T12:44:58.512Z,33.55
2018-03-01T12:47:24.729Z,31.17
2018-03-01T12:49:51.572Z,31.40
2018-03-01T12:52:17.818Z,32.88
2018-03-01T12:54:45.115Z,33.08
2018-03-01T12:57:12.131Z,31.50
2018-03-01T12:59:38.456Z,34.38
2018-03-01T13:02:06.306Z,30.90
2018-03-01T13:04:38.173Z,29.50
2018-03-01T13:07:04.428Z,32.10
2018-03-01T13:09:30.961Z,40.38
2018-03-01T13:11:58.114Z,31.75
2018-03-01T13:14:24.627Z,32.85
2018-03-01T13:16:51.812Z,30.25
2018-03-01T13:19:18.795Z,31.35
2018-03-01T13:21:45.990Z,33.35
2018-03-01T13:24:12.699Z,28.35
2018-03-01T13:26:40.761Z,35.92
2018-03-01T13:29:07.955Z,36.28
2018-03-01T13:31:35.003Z,36.08
2018-03-01T13:34:06.159Z,33.50
2018-03-01T13:36:33.818Z,35.40
2018-03-01T13:39:01.608Z,34.90
2018-03-01T13:41:28.819Z,37.47
2018-03-01T13:43:55.570Z,38.80
2018-03-01T13:46:24.597Z,34.90
2018-03-01T13:48:50.838Z,36.20
2018-03-01T13:51:17.323Z,34.17
2018-03-01T13:53:44.935Z,40.22
2018-03-01T13:56:11.248Z,40.60
2018-03-01T13:58:38.032Z,38.92
2018-03-01T14:01:05.038Z,39.00
2018-03-01T14:03:31.932Z,39.33
2018-03-01T14:06:01.540Z,40.88
2018-03-01T14:08:28.415Z,42.50
2018-03-01T14:10:55.394Z,34.20
2018-03-01T14:13:23.623Z,36.53
2018-03-01T14:15:50.605Z,43.50
2018-03-01T14:18:20.711Z,37.85
2018-03-01T14:20:53.163Z,43.72
2018-03-01T14:23:26.224Z,38.17
2018-03-01T14:25:56.025Z,36.72
2018-03-01T14:28:29.272Z,36.22
2018-03-01T14:30:55.556Z,35.47
2018-03-01T14:33:22.357Z,41.83
2018-03-01T14:35:48.581Z,37.25
2018-03-01T14:38:14.801Z,40.30
2018-03-01T14:40:41.540Z,37.10
2018-03-01T14:43:07.747Z,34.95
2018-03-01T14:45:35.075Z,37.10
2018-03-01T14:48:02.920Z,38.17
2018-03-01T14:50:30.862Z,42.05
2018-03-01T14:52:57.892Z,42.15
2018-03-01T14:55:24.953Z,36.55
2018-03-01T14:57:51.278Z,42.55
2018-03-01T15:00:17.649Z,39.05
2018-03-01T15:02:44.130Z,47.62
2018-03-01T15:05:11.599Z,36.67
2018-03-01T15:07:38.363Z,40.65
2018-03-01T15:10:05.001Z,33.03
2018-03-01T15:12:32.065Z,40.78
2018-03-01T15:14:58.985Z,39.97
2018-03-01T15:17:25.890Z,39.50
2018-03-01T15:19:52.928Z,37.80
2018-03-01T15:22:19.716Z,37.35
2018-03-01T15:24:45.939Z,41.08
2018-03-01T15:27:13.199Z,43.10
2018-03-01T15:29:39.989Z,39.95
2018-03-01T15:32:06.585Z,39.80
2018-03-01T15:34:33.671Z,45.60
2018-03-01T15:36:59.866Z,37.22
2018-03-01T15:39:28.011Z,41.67
2018-03-01T15:41:54.258Z,35.53
2018-03-01T15:44:20.506Z,41.53
2018-03-01T15:46:47.055Z,40.47
2018-03-01T15:49:14.753Z,38.42
2018-03-01T15:51:41.619Z,42.15
2018-03-01T15:54:07.833Z,37.28
2018-03-01T15:56:34.726Z,44.35
2018-03-01T15:59:00.918Z,53.80
2018-03-01T16:01:27.230Z,43.03
2018-03-01T16:03:53.452Z,41.60
2018-03-01T16:06:19.897Z,40.25
2018-03-01T16:08:46.946Z,42.30
2018-03-01T16:11:13.181Z,41.13
2018-03-01T16:13:41.398Z,44.67
2018-03-01T16:16:08.466Z,43.70
2018-03-01T16:18:35.437Z,44.45
2018-03-01T16:21:02.220Z,44.95
2018-03-01T16:23:28.550Z,38.55
2018-03-01T16:25:55.432Z,45.83
2018-03-01T16:28:22.411Z,46.47
2018-03-01T16:30:48.799Z,40.53
2018-03-01T16:33:15.739Z,52.50
2018-03-01T16:35:42.165Z,48.95
2018-03-01T16:38:09.265Z,44.25
2018-03-01T16:40:35.492Z,50.65
2018-03-01T16:43:01.867Z,46.70
2018-03-01T16:45:28.155Z,45.22
2018-03-01T16:47:54.577Z,44.97
2018-03-01T16:50:20.865Z,47.88
2018-03-01T16:52:48.086Z,46.90
2018-03-01T16:55:14.742Z,46.85
2018-03-01T16:57:42.154Z,50.20
2018-03-01T17:00:08.834Z,48.75
2018-03-01T17:02:35.581Z,44.97
2018-03-01T17:05:01.947Z,55.53
2018-03-01T17:07:28.199Z,50.83
2018-03-01T17:09:56.344Z,53.35
2018-03-01T17:12:23.065Z,48.42
2018-03-01T17:14:50.613Z,54.28
2018-03-01T17:17:17.756Z,41.25
2018-03-01T17:19:44.726Z,46.75
2018-03-01T17:22:11.725Z,50.12
2018-03-01T17:24:39.104Z,48.97
2018-03-01T17:27:05.384Z,56.92
2018-03-01T17:29:31.807Z,54.28
2018-03-01T17:31:58.079Z,46.05
2018-03-01T17:34:24.959Z,42.38
2018-03-01T17:36:51.691Z,49.35
2018-03-01T17:39:18.036Z,47.67
2018-03-01T17:41:45.725Z,50.03
2018-03-01T17:44:12.392Z,48.10
2018-03-01T17:46:39.136Z,54.88
2018-03-01T17:49:05.413Z,49.78
2018-03-01T17:51:31.853Z,39.80
2018-03-01T17:53:58.640Z,50.55
2018-03-01T17:56:25.898Z,51.55
2018-03-01T17:58:52.171Z,45.85
2018-03-01T18:01:18.440Z,46.55
2018-03-01T18:03:45.725Z,45.35
2018-03-01T18:06:12.775Z,44.20
2018-03-01T18:08:39.758Z,48.08
2018-03-01T18:11:05.979Z,42.30
2018-03-01T18:13:32.443Z,42.13
2018-03-01T18:15:59.309Z,48.03
2018-03-01T18:18:26.798Z,108.57
2018-03-01T18:20:53.855Z,46.88
2018-03-01T18:23:20.815Z,46.22
2018-03-01T18:25:47.413Z,48.00
2018-03-01T18:28:14.674Z,45.67
2018-03-01T18:30:41.825Z,56.35
2018-03-01T18:33:08.784Z,52.22
2018-03-01T18:35:34.991Z,68.97
2018-03-01T18:38:02.848Z,65.70
2018-03-01T18:40:30.430Z,51.58
2018-03-01T18:42:57.892Z,48.45
2018-03-01T18:45:24.106Z,44.97
2018-03-01T18:47:52.599Z,49.38
2018-03-01T18:50:19.334Z,44.78
2018-03-01T18:52:45.609Z,42.92
2018-03-01T18:55:12.356Z,41.00
2018-03-01T18:57:38.627Z,44.75
2018-03-01T19:00:06.828Z,45.35
2018-03-01T19:02:33.734Z,47.28
2018-03-01T19:05:00.695Z,42.28
2018-03-01T19:07:27.587Z,45.25
2018-03-01T19:09:55.828Z,42.35
2018-03-01T19:12:22.291Z,37.50
2018-03-01T19:14:49.064Z,39.45
2018-03-01T19:17:16.152Z,48.42
2018-03-01T19:19:42.424Z,47.38
2018-03-01T19:22:09.311Z,43.70
2018-03-01T19:24:35.842Z,41.83
2018-03-01T19:27:02.101Z,43.10
2018-03-01T19:29:28.813Z,47.70
2018-03-01T19:31:56.083Z,50.70
2018-03-01T19:34:22.466Z,46.17
2018-03-01T19:36:49.371Z,43.92
2018-03-01T19:39:16.419Z,40.90
2018-03-01T19:41:42.728Z,47.00
2018-03-01T19:44:09.492Z,41.90
2018-03-01T19:46:35.907Z,43.65
2018-03-01T19:49:02.756Z,40.88
2018-03-01T19:51:30.257Z,43.05
2018-03-01T19:53:57.611Z,44.83
2018-03-01T19:56:24.494Z,42.35
2018-03-01T19:58:52.671Z,42.45
2018-03-01T20:01:19.006Z,41.00
2018-03-01T20:03:45.984Z,35.55
2018-03-01T20:06:14.029Z,40.60
2018-03-01T20:08:40.325Z,49.15
2018-03-01T20:11:07.450Z,43.70
2018-03-01T20:13:33.887Z,42.88
2018-03-01T20:16:00.092Z,43.70
2018-03-01T20:18:26.585Z,42.08
2018-03-01T20:20:53.630Z,38.25
2018-03-01T20:23:19.864Z,40.05
2018-03-01T20:25:46.418Z,46.70
2018-03-01T20:28:13.677Z,51.45
2018-03-01T20:30:40.198Z,48.70
2018-03-01T20:33:07.097Z,50.70
2018-03-01T20:38:07.826Z,45.20
2018-03-01T20:40:34.133Z,44.53
2018-03-01T20:43:00.470Z,43.10
2018-03-01T20:45:28.053Z,46.15
2018-03-01T20:47:54.798Z,51.25
2018-03-01T20:50:21.126Z,45.47
2018-03-01T20:52:47.818Z,46.92
2018-03-01T20:55:14.239Z,40.97
2018-03-01T20:57:41.066Z,45.35
2018-03-01T21:00:09.505Z,46.67
2018-03-01T21:02:36.175Z,44.15
2018-03-01T21:05:03.252Z,42.38
2018-03-01T21:07:29.621Z,41.15
2018-03-01T21:09:56.745Z,42.97
2018-03-01T21:12:23.828Z,43.85
2018-03-01T21:14:50.077Z,45.35
2018-03-01T21:17:17.534Z,42.65
2018-03-01T21:19:44.522Z,44.78
2018-03-01T21:22:11.583Z,49.35
2018-03-01T21:24:37.914Z,43.35
2018-03-01T21:27:04.138Z,43.97
2018-03-01T21:29:30.988Z,42.03
2018-03-01T21:32:04.414Z,51.47
2018-03-01T21:34:33.145Z,50.08
2018-03-01T21:37:00.031Z,44.95
2018-03-01T21:39:26.876Z,46.17
2018-03-01T21:41:53.080Z,44.85
2018-03-01T21:44:20.332Z,56.67
2018-03-01T21:46:59.397Z,51.85
2018-03-01T21:49:27.389Z,49.78
2018-03-01T21:51:54.246Z,48.75
2018-03-01T21:54:21.290Z,44.25
2018-03-01T21:56:48.764Z,50.47
2018-03-01T21:59:16.439Z,51.37
2018-03-01T22:01:42.941Z,57.80
2018-03-01T22:04:09.947Z,52.17
2018-03-01T22:06:36.154Z,54.35
2018-03-01T22:09:03.073Z,57.50
2018-03-01T22:11:29.789Z,59.83
2018-03-01T22:13:56.536Z,54.28
2018-03-01T22:16:22.913Z,51.40
2018-03-01T22:18:50.366Z,54.75
2018-03-01T22:21:16.631Z,57.10
2018-03-01T22:23:43.868Z,57.62
2018-03-01T22:26:10.840Z,47.53
2018-03-01T22:28:37.979Z,52.95
2018-03-01T22:31:04.947Z,61.03
2018-03-01T22:33:31.558Z,53.80
2018-03-01T22:35:58.746Z,53.08
2018-03-01T22:38:25.743Z,53.80
2018-03-01T22:40:52.824Z,55.58
2018-03-01T22:43:19.659Z,53.05
2018-03-01T22:45:46.108Z,54.88
2018-03-01T22:48:12.318Z,52.95
2018-03-01T22:50:39.066Z,50.92
2018-03-01T22:53:05.297Z,55.12
2018-03-01T22:55:32.061Z,52.22
2018-03-01T22:57:59.082Z,53.45
2018-03-01T23:00:37.715Z,42.33
2018-03-01T23:03:05.045Z,48.08
2018-03-01T23:05:31.283Z,50.78
2018-03-01T23:07:58.083Z,49.85
2018-03-01T23:10:25.317Z,48.78
2018-03-01T23:12:52.308Z,44.42
2018-03-01T23:15:18.730Z,46.85
2018-03-01T23:17:45.574Z,45.50
2018-03-01T23:20:13.039Z,60.00
2018-03-01T23:22:40.091Z,46.55
2018-03-01T23:25:07.156Z,53.95
2018-03-01T23:27:34.216Z,47.17
2018-03-01T23:30:00.486Z,43.92
2018-03-01T23:32:26.952Z,44.53
2018-03-01T23:34:54.407Z,43.65
2018-03-01T23:37:21.345Z,47.65
2018-03-01T23:39:48.673Z,46.67
2018-03-01T23:42:15.934Z,46.05
2018-03-01T23:44:43.496Z,47.85
2018-03-01T23:47:11.089Z,44.22
2018-03-01T23:49:38.241Z,49.08
2018-03-01T23:52:05.156Z,43.75
2018-03-01T23:54:33.093Z,47.20
2018-03-01T23:56:59.424Z,48.63
2018-03-01T23:59:25.656Z,48.50
